Terminal Aerodrome Forecast
Issued by NWS New Orleans/Baton Rouge, LA

Home | Current Version | Previous Version | Text Only | Print | Product List | Glossary On
Versions: 1 2 3 4 5 6 7 8 9 10 11 12 13 14 15 16 17 18 19 20
000
FTUS44 KLIX 010531
TAFBTR
TAF
KBTR 010531Z 0106/0206 13004KT P6SM SCT250
     FM010900 14005KT P6SM VCSH BKN012
     FM011300 15007KT P6SM SHRA BKN050
      TEMPO 0113/0116 VRB25KT 2SM TSRA BKN022CB
     FM011900 16009KT P6SM VCSH SCT050 BKN150
     FM012300 17007KT P6SM BKN150
     FM020300 VRB03KT P6SM BKN025=

USA.gov is the U.S. government's official web portal to all federal, state and local government web resources and services.